sensor_id;sensor_type;location;lat;lon;timestamp;P1;durP1;ratioP1;P2;durP2;ratioP2
22965;SDS011;11649;48.090;9.754;2024-03-08T00:00:34;26.48;;;14.73;;
22965;SDS011;11649;48.090;9.754;2024-03-08T00:03:01;26.92;;;14.80;;
22965;SDS011;11649;48.090;9.754;2024-03-08T00:05:29;24.55;;;15.50;;
22965;SDS011;11649;48.090;9.754;2024-03-08T00:07:56;27.73;;;15.32;;
22965;SDS011;11649;48.090;9.754;2024-03-08T00:10:23;24.75;;;14.38;;
22965;SDS011;11649;48.090;9.754;2024-03-08T00:12:53;25.70;;;14.98;;
22965;SDS011;11649;48.090;9.754;2024-03-08T00:15:20;25.38;;;14.93;;
22965;SDS011;11649;48.090;9.754;2024-03-08T00:17:49;26.85;;;14.50;;
22965;SDS011;11649;48.090;9.754;2024-03-08T00:20:16;23.92;;;14.25;;
22965;SDS011;11649;48.090;9.754;2024-03-08T00:22:46;26.55;;;15.38;;
22965;SDS011;11649;48.090;9.754;2024-03-08T00:25:13;28.00;;;14.50;;
22965;SDS011;11649;48.090;9.754;2024-03-08T00:27:40;25.67;;;14.20;;
22965;SDS011;11649;48.090;9.754;2024-03-08T00:30:07;24.95;;;15.20;;
22965;SDS011;11649;48.090;9.754;2024-03-08T00:32:35;25.20;;;14.45;;
22965;SDS011;11649;48.090;9.754;2024-03-08T00:35:03;25.58;;;15.15;;
22965;SDS011;11649;48.090;9.754;2024-03-08T00:37:30;28.58;;;15.70;;
22965;SDS011;11649;48.090;9.754;2024-03-08T00:39:57;28.23;;;15.95;;
22965;SDS011;11649;48.090;9.754;2024-03-08T00:42:24;30.30;;;15.05;;
22965;SDS011;11649;48.090;9.754;2024-03-08T00:44:51;26.42;;;14.38;;
22965;SDS011;11649;48.090;9.754;2024-03-08T00:47:18;29.70;;;15.90;;
22965;SDS011;11649;48.090;9.754;2024-03-08T00:49:45;28.58;;;16.35;;
22965;SDS011;11649;48.090;9.754;2024-03-08T00:52:13;27.38;;;15.20;;
22965;SDS011;11649;48.090;9.754;2024-03-08T00:54:40;29.02;;;15.82;;
22965;SDS011;11649;48.090;9.754;2024-03-08T00:57:07;26.77;;;15.02;;
22965;SDS011;11649;48.090;9.754;2024-03-08T00:59:34;25.40;;;14.98;;
22965;SDS011;11649;48.090;9.754;2024-03-08T01:02:01;25.95;;;15.15;;
22965;SDS011;11649;48.090;9.754;2024-03-08T01:04:28;29.40;;;16.55;;
22965;SDS011;11649;48.090;9.754;2024-03-08T01:06:56;28.08;;;15.50;;
22965;SDS011;11649;48.090;9.754;2024-03-08T01:09:23;30.13;;;15.18;;
22965;SDS011;11649;48.090;9.754;2024-03-08T01:11:50;28.98;;;16.00;;
22965;SDS011;11649;48.090;9.754;2024-03-08T01:14:20;28.27;;;15.63;;
22965;SDS011;11649;48.090;9.754;2024-03-08T01:16:56;26.92;;;15.65;;
22965;SDS011;11649;48.090;9.754;2024-03-08T01:19:23;28.63;;;15.57;;
22965;SDS011;11649;48.090;9.754;2024-03-08T01:21:50;28.00;;;15.40;;
22965;SDS011;11649;48.090;9.754;2024-03-08T01:24:17;27.00;;;15.30;;
22965;SDS011;11649;48.090;9.754;2024-03-08T01:26:44;31.20;;;16.95;;
22965;SDS011;11649;48.090;9.754;2024-03-08T01:29:11;30.27;;;16.90;;
22965;SDS011;11649;48.090;9.754;2024-03-08T01:31:38;28.13;;;15.95;;
22965;SDS011;11649;48.090;9.754;2024-03-08T01:34:04;32.50;;;16.85;;
22965;SDS011;11649;48.090;9.754;2024-03-08T01:36:31;30.35;;;16.00;;
22965;SDS011;11649;48.090;9.754;2024-03-08T01:39:00;28.77;;;15.90;;
22965;SDS011;11649;48.090;9.754;2024-03-08T01:41:27;27.52;;;15.45;;
22965;SDS011;11649;48.090;9.754;2024-03-08T01:43:56;28.13;;;15.70;;
22965;SDS011;11649;48.090;9.754;2024-03-08T01:46:22;27.92;;;15.88;;
22965;SDS011;11649;48.090;9.754;2024-03-08T01:48:50;29.13;;;15.50;;
22965;SDS011;11649;48.090;9.754;2024-03-08T01:51:17;29.65;;;16.08;;
22965;SDS011;11649;48.090;9.754;2024-03-08T01:53:46;29.95;;;16.90;;
22965;SDS011;11649;48.090;9.754;2024-03-08T01:56:14;28.95;;;16.15;;
22965;SDS011;11649;48.090;9.754;2024-03-08T01:58:41;30.85;;;16.83;;
22965;SDS011;11649;48.090;9.754;2024-03-08T02:01:13;27.20;;;15.80;;
22965;SDS011;11649;48.090;9.754;2024-03-08T02:03:42;30.00;;;16.27;;
22965;SDS011;11649;48.090;9.754;2024-03-08T02:06:11;27.20;;;16.00;;
22965;SDS011;11649;48.090;9.754;2024-03-08T02:08:41;28.42;;;15.85;;
22965;SDS011;11649;48.090;9.754;2024-03-08T02:11:10;27.73;;;15.63;;
22965;SDS011;11649;48.090;9.754;2024-03-08T02:13:38;30.45;;;16.95;;
22965;SDS011;11649;48.090;9.754;2024-03-08T02:16:05;30.38;;;16.48;;
22965;SDS011;11649;48.090;9.754;2024-03-08T02:18:34;30.58;;;16.55;;
22965;SDS011;11649;48.090;9.754;2024-03-08T02:21:02;30.55;;;16.63;;
22965;SDS011;11649;48.090;9.754;2024-03-08T02:23:30;32.03;;;17.27;;
22965;SDS011;11649;48.090;9.754;2024-03-08T02:25:59;30.00;;;15.32;;
22965;SDS011;11649;48.090;9.754;2024-03-08T02:28:26;31.92;;;16.65;;
22965;SDS011;11649;48.090;9.754;2024-03-08T02:30:53;28.27;;;15.85;;
22965;SDS011;11649;48.090;9.754;2024-03-08T02:33:22;27.38;;;15.98;;
22965;SDS011;11649;48.090;9.754;2024-03-08T02:35:50;29.63;;;15.90;;
22965;SDS011;11649;48.090;9.754;2024-03-08T02:38:17;32.83;;;16.48;;
22965;SDS011;11649;48.090;9.754;2024-03-08T02:40:46;28.15;;;16.98;;
22965;SDS011;11649;48.090;9.754;2024-03-08T02:43:13;28.77;;;16.17;;
22965;SDS011;11649;48.090;9.754;2024-03-08T02:45:41;30.15;;;16.27;;
22965;SDS011;11649;48.090;9.754;2024-03-08T02:48:08;29.20;;;17.05;;
22965;SDS011;11649;48.090;9.754;2024-03-08T02:50:35;29.27;;;16.80;;
22965;SDS011;11649;48.090;9.754;2024-03-08T02:53:03;29.10;;;16.63;;
22965;SDS011;11649;48.090;9.754;2024-03-08T02:55:30;28.67;;;15.60;;
22965;SDS011;11649;48.090;9.754;2024-03-08T02:57:57;30.42;;;16.77;;
22965;SDS011;11649;48.090;9.754;2024-03-08T03:00:25;33.30;;;17.70;;
22965;SDS011;11649;48.090;9.754;2024-03-08T03:02:53;29.05;;;16.35;;
22965;SDS011;11649;48.090;9.754;2024-03-08T03:05:23;31.30;;;17.40;;
22965;SDS011;11649;48.090;9.754;2024-03-08T03:07:50;35.55;;;18.27;;
22965;SDS011;11649;48.090;9.754;2024-03-08T03:10:17;29.67;;;16.70;;
22965;SDS011;11649;48.090;9.754;2024-03-08T03:12:45;29.60;;;16.77;;
22965;SDS011;11649;48.090;9.754;2024-03-08T03:15:12;31.20;;;17.05;;
22965;SDS011;11649;48.090;9.754;2024-03-08T03:17:40;29.50;;;16.23;;
22965;SDS011;11649;48.090;9.754;2024-03-08T03:20:08;28.98;;;16.50;;
22965;SDS011;11649;48.090;9.754;2024-03-08T03:22:40;30.15;;;16.65;;
22965;SDS011;11649;48.090;9.754;2024-03-08T03:25:07;30.75;;;18.05;;
22965;SDS011;11649;48.090;9.754;2024-03-08T03:27:38;32.85;;;16.75;;
22965;SDS011;11649;48.090;9.754;2024-03-08T03:30:06;29.40;;;16.75;;
22965;SDS011;11649;48.090;9.754;2024-03-08T03:32:48;31.35;;;17.17;;
22965;SDS011;11649;48.090;9.754;2024-03-08T03:35:17;27.75;;;15.82;;
22965;SDS011;11649;48.090;9.754;2024-03-08T03:37:47;31.17;;;17.98;;
22965;SDS011;11649;48.090;9.754;2024-03-08T03:40:28;29.33;;;16.27;;
22965;SDS011;11649;48.090;9.754;2024-03-08T03:42:55;29.25;;;17.50;;
22965;SDS011;11649;48.090;9.754;2024-03-08T03:45:25;32.63;;;17.45;;
22965;SDS011;11649;48.090;9.754;2024-03-08T03:47:52;29.75;;;16.55;;
22965;SDS011;11649;48.090;9.754;2024-03-08T03:50:19;31.02;;;17.48;;
22965;SDS011;11649;48.090;9.754;2024-03-08T03:52:48;33.92;;;17.50;;
22965;SDS011;11649;48.090;9.754;2024-03-08T03:55:15;31.27;;;17.00;;
22965;SDS011;11649;48.090;9.754;2024-03-08T03:57:42;27.33;;;16.80;;
22965;SDS011;11649;48.090;9.754;2024-03-08T04:00:12;28.10;;;16.50;;
22965;SDS011;11649;48.090;9.754;2024-03-08T04:02:39;33.28;;;17.73;;
22965;SDS011;11649;48.090;9.754;2024-03-08T04:05:07;30.70;;;17.85;;
22965;SDS011;11649;48.090;9.754;2024-03-08T04:07:36;33.05;;;17.52;;
22965;SDS011;11649;48.090;9.754;2024-03-08T04:10:04;28.40;;;17.15;;
22965;SDS011;11649;48.090;9.754;2024-03-08T04:12:33;34.50;;;18.40;;
22965;SDS011;11649;48.090;9.754;2024-03-08T04:15:00;34.00;;;17.95;;
22965;SDS011;11649;48.090;9.754;2024-03-08T04:17:27;30.77;;;17.90;;
22965;SDS011;11649;48.090;9.754;2024-03-08T04:19:54;32.50;;;16.83;;
22965;SDS011;11649;48.090;9.754;2024-03-08T04:22:21;29.02;;;16.77;;
22965;SDS011;11649;48.090;9.754;2024-03-08T04:24:49;32.17;;;16.70;;
22965;SDS011;11649;48.090;9.754;2024-03-08T04:27:15;29.05;;;16.55;;
22965;SDS011;11649;48.090;9.754;2024-03-08T04:29:42;31.92;;;17.45;;
22965;SDS011;11649;48.090;9.754;2024-03-08T04:32:09;31.88;;;16.98;;
22965;SDS011;11649;48.090;9.754;2024-03-08T04:34:36;33.72;;;18.00;;
22965;SDS011;11649;48.090;9.754;2024-03-08T04:37:03;34.25;;;17.83;;
22965;SDS011;11649;48.090;9.754;2024-03-08T04:39:32;30.13;;;16.90;;
22965;SDS011;11649;48.090;9.754;2024-03-08T04:42:00;31.27;;;16.67;;
22965;SDS011;11649;48.090;9.754;2024-03-08T04:44:33;27.73;;;16.47;;
22965;SDS011;11649;48.090;9.754;2024-03-08T04:47:00;31.48;;;16.65;;
22965;SDS011;11649;48.090;9.754;2024-03-08T04:49:27;28.25;;;16.90;;
22965;SDS011;11649;48.090;9.754;2024-03-08T04:51:54;30.42;;;17.25;;
22965;SDS011;11649;48.090;9.754;2024-03-08T04:54:22;32.47;;;16.85;;
22965;SDS011;11649;48.090;9.754;2024-03-08T04:56:49;30.40;;;17.52;;
22965;SDS011;11649;48.090;9.754;2024-03-08T04:59:15;32.67;;;17.00;;
22965;SDS011;11649;48.090;9.754;2024-03-08T05:01:42;29.35;;;16.48;;
22965;SDS011;11649;48.090;9.754;2024-03-08T05:04:09;29.58;;;16.33;;
22965;SDS011;11649;48.090;9.754;2024-03-08T05:06:36;28.92;;;16.63;;
22965;SDS011;11649;48.090;9.754;2024-03-08T05:09:03;29.27;;;17.30;;
22965;SDS011;11649;48.090;9.754;2024-03-08T05:11:40;36.70;;;17.55;;
22965;SDS011;11649;48.090;9.754;2024-03-08T05:14:09;35.08;;;18.20;;
22965;SDS011;11649;48.090;9.754;2024-03-08T05:16:36;31.08;;;16.50;;
22965;SDS011;11649;48.090;9.754;2024-03-08T05:19:03;36.25;;;18.30;;
22965;SDS011;11649;48.090;9.754;2024-03-08T05:21:30;33.53;;;18.40;;
22965;SDS011;11649;48.090;9.754;2024-03-08T05:23:57;35.55;;;18.65;;
22965;SDS011;11649;48.090;9.754;2024-03-08T05:26:24;30.73;;;17.60;;
22965;SDS011;11649;48.090;9.754;2024-03-08T05:28:50;31.90;;;17.77;;
22965;SDS011;11649;48.090;9.754;2024-03-08T05:31:19;33.50;;;18.20;;
22965;SDS011;11649;48.090;9.754;2024-03-08T05:33:49;34.58;;;18.50;;
22965;SDS011;11649;48.090;9.754;2024-03-08T05:36:16;33.50;;;18.45;;
22965;SDS011;11649;48.090;9.754;2024-03-08T05:38:43;32.30;;;17.33;;
22965;SDS011;11649;48.090;9.754;2024-03-08T05:41:10;32.22;;;17.33;;
22965;SDS011;11649;48.090;9.754;2024-03-08T05:43:41;30.58;;;17.05;;
22965;SDS011;11649;48.090;9.754;2024-03-08T05:46:08;32.63;;;17.60;;
22965;SDS011;11649;48.090;9.754;2024-03-08T05:48:34;34.67;;;18.23;;
22965;SDS011;11649;48.090;9.754;2024-03-08T05:51:02;35.72;;;18.13;;
22965;SDS011;11649;48.090;9.754;2024-03-08T05:53:29;34.78;;;17.48;;
22965;SDS011;11649;48.090;9.754;2024-03-08T05:55:58;37.03;;;17.98;;
22965;SDS011;11649;48.090;9.754;2024-03-08T05:58:25;30.17;;;17.20;;
22965;SDS011;11649;48.090;9.754;2024-03-08T06:00:52;29.92;;;16.83;;
22965;SDS011;11649;48.090;9.754;2024-03-08T06:03:19;30.98;;;17.10;;
22965;SDS011;11649;48.090;9.754;2024-03-08T06:05:48;33.50;;;17.40;;
22965;SDS011;11649;48.090;9.754;2024-03-08T06:08:15;30.15;;;16.75;;
22965;SDS011;11649;48.090;9.754;2024-03-08T06:10:42;30.75;;;17.05;;
22965;SDS011;11649;48.090;9.754;2024-03-08T06:13:09;29.73;;;16.95;;
22965;SDS011;11649;48.090;9.754;2024-03-08T06:15:38;29.42;;;16.45;;
22965;SDS011;11649;48.090;9.754;2024-03-08T06:18:05;30.95;;;16.92;;
22965;SDS011;11649;48.090;9.754;2024-03-08T06:20:33;29.80;;;16.13;;
22965;SDS011;11649;48.090;9.754;2024-03-08T06:23:00;28.95;;;16.90;;
22965;SDS011;11649;48.090;9.754;2024-03-08T06:25:27;32.03;;;17.67;;
22965;SDS011;11649;48.090;9.754;2024-03-08T06:27:54;29.92;;;15.63;;
22965;SDS011;11649;48.090;9.754;2024-03-08T06:30:21;31.80;;;16.83;;
22965;SDS011;11649;48.090;9.754;2024-03-08T06:32:48;29.88;;;16.27;;
22965;SDS011;11649;48.090;9.754;2024-03-08T06:35:15;26.42;;;15.63;;
22965;SDS011;11649;48.090;9.754;2024-03-08T06:37:42;32.85;;;16.45;;
22965;SDS011;11649;48.090;9.754;2024-03-08T06:40:11;28.30;;;15.35;;
22965;SDS011;11649;48.090;9.754;2024-03-08T06:42:40;34.88;;;17.42;;
22965;SDS011;11649;48.090;9.754;2024-03-08T06:45:08;29.92;;;16.60;;
22965;SDS011;11649;48.090;9.754;2024-03-08T06:47:36;29.75;;;16.73;;
22965;SDS011;11649;48.090;9.754;2024-03-08T06:50:04;29.05;;;15.30;;
22965;SDS011;11649;48.090;9.754;2024-03-08T06:52:32;33.25;;;16.90;;
22965;SDS011;11649;48.090;9.754;2024-03-08T06:54:59;34.30;;;17.70;;
22965;SDS011;11649;48.090;9.754;2024-03-08T06:57:28;31.13;;;17.13;;
22965;SDS011;11649;48.090;9.754;2024-03-08T06:59:55;29.33;;;16.15;;
22965;SDS011;11649;48.090;9.754;2024-03-08T07:02:23;30.25;;;16.13;;
22965;SDS011;11649;48.090;9.754;2024-03-08T07:04:53;33.47;;;17.40;;
22965;SDS011;11649;48.090;9.754;2024-03-08T07:07:20;30.25;;;16.27;;
22965;SDS011;11649;48.090;9.754;2024-03-08T07:09:47;29.20;;;15.40;;
22965;SDS011;11649;48.090;9.754;2024-03-08T07:12:15;31.60;;;15.85;;
22965;SDS011;11649;48.090;9.754;2024-03-08T07:14:43;27.73;;;15.85;;
22965;SDS011;11649;48.090;9.754;2024-03-08T07:17:12;27.33;;;15.00;;
22965;SDS011;11649;48.090;9.754;2024-03-08T07:19:38;29.45;;;15.15;;
22965;SDS011;11649;48.090;9.754;2024-03-08T07:22:05;26.73;;;15.38;;
22965;SDS011;11649;48.090;9.754;2024-03-08T07:24:35;32.38;;;16.65;;
22965;SDS011;11649;48.090;9.754;2024-03-08T07:27:20;30.75;;;16.52;;
22965;SDS011;11649;48.090;9.754;2024-03-08T07:29:47;29.60;;;15.63;;
22965;SDS011;11649;48.090;9.754;2024-03-08T07:32:14;26.00;;;14.65;;
22965;SDS011;11649;48.090;9.754;2024-03-08T07:34:47;26.33;;;15.20;;
22965;SDS011;11649;48.090;9.754;2024-03-08T07:37:17;28.75;;;16.13;;
22965;SDS011;11649;48.090;9.754;2024-03-08T07:39:45;28.60;;;16.25;;
22965;SDS011;11649;48.090;9.754;2024-03-08T07:42:12;30.58;;;16.55;;
22965;SDS011;11649;48.090;9.754;2024-03-08T07:44:39;29.10;;;15.98;;
22965;SDS011;11649;48.090;9.754;2024-03-08T07:47:06;28.15;;;15.02;;
22965;SDS011;11649;48.090;9.754;2024-03-08T07:49:35;30.05;;;15.32;;
22965;SDS011;11649;48.090;9.754;2024-03-08T07:52:05;28.83;;;15.35;;
22965;SDS011;11649;48.090;9.754;2024-03-08T07:54:33;26.05;;;14.07;;
22965;SDS011;11649;48.090;9.754;2024-03-08T07:57:03;25.45;;;14.73;;
22965;SDS011;11649;48.090;9.754;2024-03-08T07:59:30;25.98;;;14.30;;
22965;SDS011;11649;48.090;9.754;2024-03-08T08:01:57;27.27;;;15.15;;
22965;SDS011;11649;48.090;9.754;2024-03-08T08:04:24;27.58;;;14.68;;
22965;SDS011;11649;48.090;9.754;2024-03-08T08:06:51;27.40;;;14.48;;
22965;SDS011;11649;48.090;9.754;2024-03-08T08:09:19;27.00;;;14.43;;
22965;SDS011;11649;48.090;9.754;2024-03-08T08:11:54;26.73;;;14.70;;
22965;SDS011;11649;48.090;9.754;2024-03-08T08:14:22;25.77;;;14.00;;
22965;SDS011;11649;48.090;9.754;2024-03-08T08:16:48;28.23;;;14.40;;
22965;SDS011;11649;48.090;9.754;2024-03-08T08:19:19;26.98;;;15.02;;
22965;SDS011;11649;48.090;9.754;2024-03-08T08:21:45;25.13;;;14.05;;
22965;SDS011;11649;48.090;9.754;2024-03-08T08:24:13;32.63;;;16.70;;
22965;SDS011;11649;48.090;9.754;2024-03-08T08:26:39;30.00;;;15.30;;
22965;SDS011;11649;48.090;9.754;2024-03-08T08:29:07;28.40;;;15.02;;
22965;SDS011;11649;48.090;9.754;2024-03-08T08:31:34;24.77;;;14.25;;
22965;SDS011;11649;48.090;9.754;2024-03-08T08:34:00;25.90;;;14.13;;
22965;SDS011;11649;48.090;9.754;2024-03-08T08:36:29;27.38;;;15.50;;
22965;SDS011;11649;48.090;9.754;2024-03-08T08:38:56;27.90;;;14.25;;
22965;SDS011;11649;48.090;9.754;2024-03-08T08:41:24;27.75;;;14.77;;
22965;SDS011;11649;48.090;9.754;2024-03-08T08:43:52;29.33;;;14.23;;
22965;SDS011;11649;48.090;9.754;2024-03-08T08:46:33;25.10;;;14.23;;
22965;SDS011;11649;48.090;9.754;2024-03-08T08:49:06;25.40;;;14.43;;
22965;SDS011;11649;48.090;9.754;2024-03-08T08:51:37;26.73;;;13.82;;
22965;SDS011;11649;48.090;9.754;2024-03-08T08:54:03;27.45;;;14.90;;
22965;SDS011;11649;48.090;9.754;2024-03-08T08:56:36;25.40;;;13.32;;
22965;SDS011;11649;48.090;9.754;2024-03-08T08:59:03;27.80;;;14.35;;
22965;SDS011;11649;48.090;9.754;2024-03-08T09:01:31;24.80;;;13.60;;
22965;SDS011;11649;48.090;9.754;2024-03-08T09:03:58;23.00;;;13.05;;
22965;SDS011;11649;48.090;9.754;2024-03-08T09:06:24;24.92;;;13.13;;
22965;SDS011;11649;48.090;9.754;2024-03-08T09:08:52;21.92;;;13.13;;
22965;SDS011;11649;48.090;9.754;2024-03-08T09:11:19;24.33;;;13.35;;
22965;SDS011;11649;48.090;9.754;2024-03-08T09:13:46;22.48;;;12.82;;
22965;SDS011;11649;48.090;9.754;2024-03-08T09:16:13;22.50;;;12.77;;
22965;SDS011;11649;48.090;9.754;2024-03-08T09:18:40;24.00;;;13.82;;
22965;SDS011;11649;48.090;9.754;2024-03-08T09:21:07;23.55;;;13.13;;
22965;SDS011;11649;48.090;9.754;2024-03-08T09:23:39;22.77;;;13.35;;
22965;SDS011;11649;48.090;9.754;2024-03-08T09:26:07;22.17;;;12.60;;
22965;SDS011;11649;48.090;9.754;2024-03-08T09:28:48;23.65;;;12.73;;
22965;SDS011;11649;48.090;9.754;2024-03-08T09:31:14;24.58;;;12.77;;
22965;SDS011;11649;48.090;9.754;2024-03-08T09:33:42;23.77;;;13.63;;
22965;SDS011;11649;48.090;9.754;2024-03-08T09:36:08;23.95;;;14.07;;
22965;SDS011;11649;48.090;9.754;2024-03-08T09:38:35;27.25;;;14.90;;
22965;SDS011;11649;48.090;9.754;2024-03-08T09:41:02;27.70;;;15.38;;
22965;SDS011;11649;48.090;9.754;2024-03-08T09:43:30;25.52;;;14.00;;
22965;SDS011;11649;48.090;9.754;2024-03-08T09:45:57;28.90;;;15.15;;
22965;SDS011;11649;48.090;9.754;2024-03-08T09:48:24;27.25;;;14.23;;
22965;SDS011;11649;48.090;9.754;2024-03-08T09:50:52;28.52;;;15.00;;
22965;SDS011;11649;48.090;9.754;2024-03-08T09:53:20;27.45;;;15.15;;
22965;SDS011;11649;48.090;9.754;2024-03-08T09:55:48;25.27;;;14.32;;
22965;SDS011;11649;48.090;9.754;2024-03-08T09:58:16;27.55;;;15.13;;
22965;SDS011;11649;48.090;9.754;2024-03-08T10:00:43;26.00;;;15.05;;
22965;SDS011;11649;48.090;9.754;2024-03-08T10:03:10;23.45;;;14.15;;
22965;SDS011;11649;48.090;9.754;2024-03-08T10:05:43;27.13;;;14.30;;
22965;SDS011;11649;48.090;9.754;2024-03-08T10:08:12;26.17;;;14.10;;
22965;SDS011;11649;48.090;9.754;2024-03-08T10:10:39;25.05;;;14.50;;
22965;SDS011;11649;48.090;9.754;2024-03-08T10:13:06;23.13;;;13.07;;
22965;SDS011;11649;48.090;9.754;2024-03-08T10:15:34;24.38;;;13.38;;
22965;SDS011;11649;48.090;9.754;2024-03-08T10:18:01;25.60;;;13.40;;
22965;SDS011;11649;48.090;9.754;2024-03-08T10:20:29;23.17;;;13.65;;
22965;SDS011;11649;48.090;9.754;2024-03-08T10:23:02;25.55;;;14.10;;
22965;SDS011;11649;48.090;9.754;2024-03-08T10:25:37;22.90;;;13.18;;
22965;SDS011;11649;48.090;9.754;2024-03-08T10:28:04;23.00;;;13.10;;
22965;SDS011;11649;48.090;9.754;2024-03-08T10:30:32;25.45;;;13.93;;
22965;SDS011;11649;48.090;9.754;2024-03-08T10:32:59;22.50;;;13.60;;
22965;SDS011;11649;48.090;9.754;2024-03-08T10:35:26;23.85;;;13.77;;
22965;SDS011;11649;48.090;9.754;2024-03-08T10:37:53;24.30;;;13.85;;
22965;SDS011;11649;48.090;9.754;2024-03-08T10:40:27;22.25;;;13.18;;
22965;SDS011;11649;48.090;9.754;2024-03-08T10:42:58;25.65;;;14.05;;
22965;SDS011;11649;48.090;9.754;2024-03-08T10:45:35;25.95;;;13.82;;
22965;SDS011;11649;48.090;9.754;2024-03-08T10:48:06;23.25;;;13.90;;
22965;SDS011;11649;48.090;9.754;2024-03-08T10:50:49;25.40;;;15.23;;
22965;SDS011;11649;48.090;9.754;2024-03-08T10:53:19;23.20;;;13.50;;
22965;SDS011;11649;48.090;9.754;2024-03-08T10:55:49;23.88;;;14.07;;
22965;SDS011;11649;48.090;9.754;2024-03-08T10:58:21;23.50;;;12.82;;
22965;SDS011;11649;48.090;9.754;2024-03-08T11:00:49;24.35;;;13.98;;
22965;SDS011;11649;48.090;9.754;2024-03-08T11:06:15;21.63;;;12.98;;
22965;SDS011;11649;48.090;9.754;2024-03-08T11:08:56;22.15;;;13.30;;
22965;SDS011;11649;48.090;9.754;2024-03-08T11:13:58;22.23;;;13.07;;
22965;SDS011;11649;48.090;9.754;2024-03-08T11:18:58;26.42;;;13.93;;
22965;SDS011;11649;48.090;9.754;2024-03-08T11:21:37;24.92;;;12.90;;
22965;SDS011;11649;48.090;9.754;2024-03-08T11:24:12;21.75;;;12.73;;
22965;SDS011;11649;48.090;9.754;2024-03-08T11:26:40;22.25;;;12.77;;
22965;SDS011;11649;48.090;9.754;2024-03-08T11:34:41;22.00;;;12.13;;
22965;SDS011;11649;48.090;9.754;2024-03-08T11:37:12;24.48;;;12.68;;
22965;SDS011;11649;48.090;9.754;2024-03-08T11:39:47;22.67;;;12.48;;
22965;SDS011;11649;48.090;9.754;2024-03-08T11:42:19;23.73;;;12.63;;
22965;SDS011;11649;48.090;9.754;2024-03-08T11:44:46;22.60;;;12.15;;
22965;SDS011;11649;48.090;9.754;2024-03-08T11:47:14;22.58;;;13.15;;
22965;SDS011;11649;48.090;9.754;2024-03-08T11:49:42;22.70;;;12.93;;
22965;SDS011;11649;48.090;9.754;2024-03-08T11:52:11;21.60;;;13.23;;
22965;SDS011;11649;48.090;9.754;2024-03-08T11:54:41;25.02;;;13.55;;
22965;SDS011;11649;48.090;9.754;2024-03-08T11:57:09;21.70;;;12.23;;
22965;SDS011;11649;48.090;9.754;2024-03-08T11:59:36;22.58;;;12.10;;
22965;SDS011;11649;48.090;9.754;2024-03-08T12:02:06;22.90;;;13.15;;
22965;SDS011;11649;48.090;9.754;2024-03-08T12:04:37;23.90;;;13.30;;
22965;SDS011;11649;48.090;9.754;2024-03-08T12:07:05;20.65;;;12.75;;
22965;SDS011;11649;48.090;9.754;2024-03-08T12:09:36;22.17;;;13.20;;
22965;SDS011;11649;48.090;9.754;2024-03-08T12:12:03;24.50;;;12.70;;
22965;SDS011;11649;48.090;9.754;2024-03-08T12:14:33;21.52;;;12.95;;
22965;SDS011;11649;48.090;9.754;2024-03-08T12:17:01;19.08;;;11.60;;
22965;SDS011;11649;48.090;9.754;2024-03-08T12:19:28;20.55;;;11.73;;
22965;SDS011;11649;48.090;9.754;2024-03-08T12:21:55;21.70;;;12.00;;
22965;SDS011;11649;48.090;9.754;2024-03-08T12:24:22;21.08;;;12.57;;
22965;SDS011;11649;48.090;9.754;2024-03-08T12:26:49;22.23;;;12.48;;
22965;SDS011;11649;48.090;9.754;2024-03-08T12:29:18;18.98;;;10.93;;
22965;SDS011;11649;48.090;9.754;2024-03-08T12:31:53;19.98;;;11.88;;
22965;SDS011;11649;48.090;9.754;2024-03-08T12:34:21;19.80;;;11.50;;
22965;SDS011;11649;48.090;9.754;2024-03-08T12:36:48;24.50;;;12.02;;
22965;SDS011;11649;48.090;9.754;2024-03-08T12:39:18;19.45;;;12.38;;
22965;SDS011;11649;48.090;9.754;2024-03-08T12:41:51;19.60;;;12.45;;
22965;SDS011;11649;48.090;9.754;2024-03-08T12:44:19;21.13;;;12.65;;
22965;SDS011;11649;48.090;9.754;2024-03-08T12:46:48;22.52;;;12.63;;
22965;SDS011;11649;48.090;9.754;2024-03-08T12:49:18;19.80;;;11.95;;
22965;SDS011;11649;48.090;9.754;2024-03-08T12:51:48;18.73;;;11.88;;
22965;SDS011;11649;48.090;9.754;2024-03-08T12:54:15;20.77;;;12.43;;
22965;SDS011;11649;48.090;9.754;2024-03-08T12:56:42;21.90;;;12.68;;
22965;SDS011;11649;48.090;9.754;2024-03-08T12:59:09;17.83;;;11.45;;
22965;SDS011;11649;48.090;9.754;2024-03-08T13:01:36;21.13;;;12.30;;
22965;SDS011;11649;48.090;9.754;2024-03-08T13:04:04;17.38;;;11.18;;
22965;SDS011;11649;48.090;9.754;2024-03-08T13:06:32;16.05;;;10.57;;
22965;SDS011;11649;48.090;9.754;2024-03-08T13:08:59;18.13;;;11.27;;
22965;SDS011;11649;48.090;9.754;2024-03-08T13:11:31;18.20;;;11.52;;
22965;SDS011;11649;48.090;9.754;2024-03-08T13:14:03;18.52;;;11.38;;
22965;SDS011;11649;48.090;9.754;2024-03-08T13:16:31;18.45;;;11.80;;
22965;SDS011;11649;48.090;9.754;2024-03-08T13:19:01;20.63;;;11.50;;
22965;SDS011;11649;48.090;9.754;2024-03-08T13:21:27;18.05;;;11.75;;
22965;SDS011;11649;48.090;9.754;2024-03-08T13:23:57;16.65;;;10.95;;
22965;SDS011;11649;48.090;9.754;2024-03-08T13:26:26;16.48;;;10.63;;
22965;SDS011;11649;48.090;9.754;2024-03-08T13:28:59;16.80;;;10.38;;
22965;SDS011;11649;48.090;9.754;2024-03-08T13:31:26;14.82;;;10.05;;
22965;SDS011;11649;48.090;9.754;2024-03-08T13:33:53;15.50;;;10.60;;
22965;SDS011;11649;48.090;9.754;2024-03-08T13:36:24;16.40;;;10.20;;
22965;SDS011;11649;48.090;9.754;2024-03-08T13:38:55;17.45;;;10.95;;
22965;SDS011;11649;48.090;9.754;2024-03-08T13:41:25;15.32;;;10.77;;
22965;SDS011;11649;48.090;9.754;2024-03-08T13:43:53;16.15;;;10.60;;
22965;SDS011;11649;48.090;9.754;2024-03-08T13:46:22;22.63;;;11.43;;
22965;SDS011;11649;48.090;9.754;2024-03-08T13:48:50;16.60;;;10.73;;
22965;SDS011;11649;48.090;9.754;2024-03-08T13:51:19;13.90;;;10.10;;
22965;SDS011;11649;48.090;9.754;2024-03-08T13:53:48;15.18;;;10.85;;
22965;SDS011;11649;48.090;9.754;2024-03-08T13:56:15;13.73;;;10.05;;
22965;SDS011;11649;48.090;9.754;2024-03-08T13:58:42;15.60;;;11.30;;
22965;SDS011;11649;48.090;9.754;2024-03-08T14:01:10;13.35;;;10.20;;
22965;SDS011;11649;48.090;9.754;2024-03-08T14:03:38;14.93;;;10.25;;
22965;SDS011;11649;48.090;9.754;2024-03-08T14:06:09;12.93;;;9.65;;
22965;SDS011;11649;48.090;9.754;2024-03-08T14:08:36;12.23;;;9.63;;
22965;SDS011;11649;48.090;9.754;2024-03-08T14:11:04;13.05;;;9.80;;
22965;SDS011;11649;48.090;9.754;2024-03-08T14:13:43;12.15;;;9.50;;
22965;SDS011;11649;48.090;9.754;2024-03-08T14:16:13;12.95;;;9.50;;
22965;SDS011;11649;48.090;9.754;2024-03-08T14:18:41;12.88;;;9.40;;
22965;SDS011;11649;48.090;9.754;2024-03-08T14:21:08;12.30;;;9.60;;
22965;SDS011;11649;48.090;9.754;2024-03-08T14:23:36;14.52;;;10.50;;
22965;SDS011;11649;48.090;9.754;2024-03-08T14:26:03;14.25;;;10.40;;
22965;SDS011;11649;48.090;9.754;2024-03-08T14:28:33;12.82;;;10.02;;
22965;SDS011;11649;48.090;9.754;2024-03-08T14:31:01;13.82;;;10.43;;
22965;SDS011;11649;48.090;9.754;2024-03-08T14:33:32;13.27;;;10.32;;
22965;SDS011;11649;48.090;9.754;2024-03-08T14:35:59;16.10;;;11.20;;
22965;SDS011;11649;48.090;9.754;2024-03-08T14:38:27;15.57;;;10.75;;
22965;SDS011;11649;48.090;9.754;2024-03-08T14:40:54;14.38;;;10.35;;